Time;durP1;ratioP1;P1;durP2;ratioP2;P2;SDS_P1;SDS_P2;PMS_P1;PMS_P2;Temp;Humidity;BMP_temperature;BMP_pressure;BME280_temperature;BME280_humidity;BME280_pressure;Samples;Min_cycle;Max_cycle;Signal;HPM_P1;HPM_P2
2022/09/12 00:00:10;;;;;;;4.25;1.58;;;;;;;16.33;81.48;96101.53;5093127;28;20044;-60
2022/09/12 00:02:37;;;;;;;3.10;1.63;;;;;;;16.34;81.01;96103.22;5093066;28;20086;-60
2022/09/12 00:08:25;;;;;;;1.60;1.50;;;;;;;16.33;81.59;96087.50;5093118;28;20127;-60
2022/09/12 00:14:17;;;;;;;4.85;1.90;;;;;;;16.26;80.24;96079.16;5086900;28;20091;-60
2022/09/12 00:17:31;;;;;;;1.90;1.70;;;;;;;16.34;81.17;96090.03;5092977;28;20080;-60
2022/09/12 00:20:49;;;;;;;8.60;1.90;;;;;;;16.31;81.98;96078.84;5092863;28;20048;-60
2022/09/12 00:24:08;;;;;;;2.63;1.90;;;;;;;16.25;81.59;96067.75;5092910;28;20075;-60
2022/09/12 00:26:36;;;;;;;8.75;1.90;;;;;;;16.25;81.24;96069.53;5092770;28;20055;-60
2022/09/12 00:29:03;;;;;;;2.15;1.80;;;;;;;16.25;81.35;96061.63;5092862;28;20131;-60
2022/09/12 00:31:30;;;;;;;6.00;1.98;;;;;;;16.24;81.99;96065.22;5092729;28;20134;-60
2022/09/12 00:34:00;;;;;;;2.58;2.08;;;;;;;16.22;82.36;96080.34;5092690;28;20052;-60
2022/09/12 00:36:28;;;;;;;3.17;1.70;;;;;;;16.21;83.26;96087.38;5092674;28;20140;-60
2022/09/12 00:38:56;;;;;;;5.05;1.83;;;;;;;16.20;82.84;96083.06;5092814;28;20551;-60
2022/09/12 00:41:25;;;;;;;1.83;1.63;;;;;;;16.24;82.67;96083.69;5092712;28;20079;-60
2022/09/12 00:43:57;;;;;;;4.20;1.63;;;;;;;16.28;82.65;96090.44;5092750;28;20146;-60
2022/09/12 00:46:33;;;;;;;4.38;2.22;;;;;;;16.31;82.73;96089.41;5092658;28;20040;-60
2022/09/12 00:49:04;;;;;;;3.60;1.80;;;;;;;16.24;80.42;96091.59;5092614;28;20044;-60
2022/09/12 00:51:34;;;;;;;1.70;1.30;;;;;;;16.25;77.21;96077.44;5096204;28;20056;-60
2022/09/12 00:54:06;;;;;;;4.97;1.75;;;;;;;16.20;78.75;96063.75;5096307;28;20048;-60
2022/09/12 00:56:35;;;;;;;1.92;1.75;;;;;;;16.15;78.61;96067.56;5096133;28;20559;-60
2022/09/12 00:59:08;;;;;;;2.22;1.58;;;;;;;16.13;79.06;96077.34;5096071;28;20131;-60
2022/09/12 01:01:36;;;;;;;5.25;2.20;;;;;;;15.98;78.34;96076.59;5096016;28;20056;-60
2022/09/12 01:04:03;;;;;;;2.55;2.13;;;;;;;15.98;79.22;96071.31;5096257;28;20052;-60
2022/09/12 01:06:36;;;;;;;2.95;2.03;;;;;;;15.85;77.51;96055.44;5095885;28;20106;-60
2022/09/12 01:09:04;;;;;;;3.80;2.15;;;;;;;15.78;79.43;96060.28;5095851;28;20048;-60
2022/09/12 01:11:32;;;;;;;2.90;2.00;;;;;;;15.78;79.36;96065.56;5095723;28;20087;-60
2022/09/12 01:14:00;;;;;;;4.70;2.20;;;;;;;15.76;79.47;96062.19;5095612;28;20131;-60
2022/09/12 01:16:28;;;;;;;1.92;1.63;;;;;;;15.70;79.68;96057.31;5095865;28;20401;-60
2022/09/12 01:19:09;;;;;;;3.25;2.15;;;;;;;15.62;80.32;96049.09;5095786;28;20051;-60
2022/09/12 01:21:46;;;;;;;2.72;1.80;;;;;;;15.57;80.54;96048.53;5095701;28;20040;-60
2022/09/12 01:24:37;;;;;;;1.83;1.73;;;;;;;15.54;80.87;96047.78;5095664;28;20479;-60
2022/09/12 01:27:23;;;;;;;3.70;2.22;;;;;;;15.51;81.47;96055.06;5095623;28;20475;-60
2022/09/12 01:30:07;;;;;;;2.85;2.08;;;;;;;15.45;81.55;96053.69;5095061;28;20048;-59
2022/09/12 01:32:51;;;;;;;4.82;2.13;;;;;;;15.40;80.63;96056.63;5095476;28;20051;-60
2022/09/12 01:35:24;;;;;;;2.03;1.77;;;;;;;15.33;80.65;96063.22;5095430;28;20151;-59
2022/09/12 01:38:03;;;;;;;4.53;1.63;;;;;;;15.33;81.85;96065.88;5095494;28;20044;-60
2022/09/12 01:40:40;;;;;;;2.03;1.85;;;;;;;15.32;81.20;96058.06;5095289;28;20050;-60
2022/09/12 01:43:17;;;;;;;3.60;1.98;;;;;;;15.32;80.99;96048.34;5095237;28;20040;-60
2022/09/12 01:45:52;;;;;;;1.75;1.65;;;;;;;15.34;80.75;96048.25;5095210;28;20048;-60
2022/09/12 01:48:24;;;;;;;4.70;1.63;;;;;;;15.38;80.34;96042.69;5094031;28;20543;-60
2022/09/12 01:50:57;;;;;;;4.53;2.22;;;;;;;15.45;80.91;96037.88;5095138;28;20126;-60
2022/09/12 01:53:29;;;;;;;3.83;1.95;;;;;;;15.48;80.00;96024.50;5094979;28;20131;-60
2022/09/12 01:56:03;;;;;;;7.32;1.40;;;;;;;15.49;78.88;96027.94;5095022;28;20086;-60
2022/09/12 01:58:37;;;;;;;1.73;1.63;;;;;;;15.52;79.26;96023.34;5094962;28;20048;-60
2022/09/12 02:01:09;;;;;;;1.70;1.60;;;;;;;15.54;80.50;96031.13;5094139;28;20070;-60
2022/09/12 02:03:44;;;;;;;3.45;1.80;;;;;;;15.53;80.01;96029.44;5094857;28;20101;-60
2022/09/12 02:06:19;;;;;;;7.32;1.40;;;;;;;15.56;78.32;96026.59;5094714;28;20443;-60
2022/09/12 02:08:52;;;;;;;3.88;1.50;;;;;;;15.60;79.75;96027.25;5094751;28;20105;-60
2022/09/12 02:11:20;;;;;;;3.38;1.60;;;;;;;15.59;81.16;96021.13;5094676;28;20071;-60
2022/09/12 02:13:55;;;;;;;2.42;1.60;;;;;;;15.57;80.17;96028.31;5094496;28;20044;-60
2022/09/12 02:16:29;;;;;;;4.75;1.50;;;;;;;15.50;80.73;96027.84;5094638;28;20044;-60
2022/09/12 02:19:03;;;;;;;7.00;1.80;;;;;;;15.46;80.82;96029.00;5094447;28;20048;-60
2022/09/12 02:21:32;;;;;;;3.13;1.33;;;;;;;15.48;81.44;96031.53;5094509;28;20052;-59
2022/09/12 02:24:03;;;;;;;3.55;1.67;;;;;;;15.49;81.03;96030.59;5094498;28;20131;-59
2022/09/12 02:26:35;;;;;;;5.82;1.50;;;;;;;15.49;79.39;96034.06;5094623;28;20048;-60
2022/09/12 02:29:04;;;;;;;3.33;1.48;;;;;;;15.50;79.33;96035.75;5094479;28;20071;-60
2022/09/12 02:31:37;;;;;;;7.22;1.60;;;;;;;15.54;80.17;96025.88;5094451;28;20131;-60
2022/09/12 02:34:22;;;;;;;4.40;2.75;;;;;;;15.53;80.20;96038.19;5094204;28;20079;-60
2022/09/12 02:36:57;;;;;;;3.50;1.40;;;;;;;15.53;80.12;96038.19;5094396;28;20047;-60
2022/09/12 02:39:25;;;;;;;3.15;1.40;;;;;;;15.57;79.29;96032.72;5094233;28;20052;-60
2022/09/12 02:41:53;;;;;;;3.45;1.33;;;;;;;15.48;78.80;96029.75;5094057;28;20048;-60
2022/09/12 02:44:21;;;;;;;3.03;1.23;;;;;;;15.43;77.55;96029.22;5094169;28;20622;-60
2022/09/12 02:46:53;;;;;;;1.50;1.40;;;;;;;15.43;77.91;96030.97;5094228;28;20119;-60
2022/09/12 02:49:23;;;;;;;3.92;1.15;;;;;;;15.37;76.60;96024.34;5094119;28;20386;-59
2022/09/12 02:51:51;;;;;;;6.50;1.60;;;;;;;15.23;76.69;96012.09;5093923;28;20052;-60
2022/09/12 02:54:20;;;;;;;4.53;1.52;;;;;;;15.22;77.16;96011.22;5094001;28;20051;-60
2022/09/12 02:56:47;;;;;;;1.80;1.25;;;;;;;15.18;78.69;96016.78;5094042;28;20489;-60
2022/09/12 02:59:17;;;;;;;5.45;1.50;;;;;;;15.19;78.38;96019.31;5093769;28;20135;-60
2022/09/12 03:02:12;;;;;;;3.95;1.70;;;;;;;15.20;79.43;96020.19;5093830;28;20118;-59
2022/09/12 03:05:03;;;;;;;2.72;1.52;;;;;;;15.24;79.43;96014.63;5093872;28;20076;-60
2022/09/12 03:07:55;;;;;;;2.55;1.58;;;;;;;15.20;78.59;96012.28;5093622;28;20080;-59
2022/09/12 03:10:28;;;;;;;4.90;1.70;;;;;;;15.12;78.36;96015.41;5093459;28;20052;-60
2022/09/12 03:13:08;;;;;;;9.32;1.92;;;;;;;15.05;78.50;96014.13;5093275;28;20397;-60
2022/09/12 03:15:46;;;;;;;3.17;1.60;;;;;;;15.02;78.09;96023.06;5093659;28;20040;-60
2022/09/12 03:18:32;;;;;;;4.38;1.60;;;;;;;14.95;78.13;96027.88;5093440;28;20048;-59
2022/09/12 03:21:06;;;;;;;4.43;1.70;;;;;;;14.88;77.92;96021.31;5093638;28;20105;-60
2022/09/12 03:23:38;;;;;;;3.35;1.67;;;;;;;14.84;77.66;96011.91;5093456;28;20051;-59
2022/09/12 03:26:09;;;;;;;4.13;1.90;;;;;;;14.83;77.89;96018.09;5093381;28;20448;-60
2022/09/12 03:28:38;;;;;;;2.10;1.90;;;;;;;14.85;78.33;96009.19;5093409;28;20048;-59
2022/09/12 03:31:14;;;;;;;1.80;1.58;;;;;;;14.85;78.71;96006.56;5093314;28;20139;-59
2022/09/12 03:33:41;;;;;;;4.38;1.90;;;;;;;14.87;78.59;96011.72;5093290;28;20046;-60
2022/09/12 03:36:16;;;;;;;2.63;2.00;;;;;;;14.88;78.14;96011.63;5093498;28;20072;-59
2022/09/12 03:38:43;;;;;;;4.13;1.90;;;;;;;14.84;78.11;96001.38;5093280;28;20044;-59
2022/09/12 03:41:10;;;;;;;4.05;1.70;;;;;;;14.77;77.69;96006.16;5093139;28;20102;-59
2022/09/12 03:43:37;;;;;;;2.60;1.92;;;;;;;14.60;77.91;96015.13;5093374;28;20072;-60
2022/09/12 03:46:05;;;;;;;8.50;2.15;;;;;;;14.43;78.07;96024.06;5093187;28;20197;-60
2022/09/12 03:48:32;;;;;;;5.47;2.20;;;;;;;14.33;78.76;96022.00;5093182;28;20134;-60
2022/09/12 03:51:01;;;;;;;2.10;2.00;;;;;;;14.21;79.29;96023.59;5092987;28;20058;-59
2022/09/12 03:53:30;;;;;;;2.78;2.20;;;;;;;14.12;79.72;96025.00;5093232;28;20054;-60
2022/09/12 03:55:57;;;;;;;6.32;2.70;;;;;;;14.11;79.91;96019.81;5093245;28;20127;-60
2022/09/12 03:58:29;;;;;;;4.90;2.10;;;;;;;14.09;79.64;96019.91;5093126;28;20078;-59
2022/09/12 04:00:56;;;;;;;5.22;1.92;;;;;;;14.05;80.27;96025.47;5093127;28;20083;-59
2022/09/12 04:03:24;;;;;;;2.83;1.85;;;;;;;14.06;79.86;96021.91;5093289;28;20097;-60
2022/09/12 04:05:51;;;;;;;9.52;2.03;;;;;;;14.05;79.95;96030.75;5092961;28;20075;-59
2022/09/12 04:08:18;;;;;;;6.35;2.22;;;;;;;14.01;79.44;96025.66;5093007;28;20406;-59
2022/09/12 04:10:46;;;;;;;6.45;2.28;;;;;;;13.96;79.52;96027.72;5092876;28;20551;-59
2022/09/12 04:13:13;;;;;;;6.28;2.58;;;;;;;13.77;79.76;96022.72;5092721;28;20076;-59
2022/09/12 04:15:40;;;;;;;2.45;2.25;;;;;;;13.71;79.93;96028.31;5093081;28;20040;-59
2022/09/12 04:18:08;;;;;;;2.38;2.17;;;;;;;13.71;79.93;96023.91;5093032;28;20574;-60
2022/09/12 04:20:36;;;;;;;9.27;2.20;;;;;;;13.74;80.24;96023.75;5092943;28;20059;-59
2022/09/12 04:23:03;;;;;;;2.60;2.40;;;;;;;13.84;80.22;96037.16;5092885;28;20048;-59
2022/09/12 04:25:30;;;;;;;3.38;2.00;;;;;;;13.96;80.19;96040.84;5095380;28;20589;-60
2022/09/12 04:27:59;;;;;;;1.80;1.70;;;;;;;14.03;79.74;96029.03;5096692;28;20076;-59
2022/09/12 04:30:26;;;;;;;3.45;2.20;;;;;;;14.12;80.52;96037.31;5096747;28;20040;-59
2022/09/12 04:32:53;;;;;;;2.55;2.10;;;;;;;14.19;80.11;96043.91;5096567;28;20097;-60
2022/09/12 04:35:20;;;;;;;4.28;1.83;;;;;;;14.28;78.80;96042.50;5096566;28;20044;-60
2022/09/12 04:37:47;;;;;;;6.47;2.22;;;;;;;14.49;79.05;96042.09;5096430;28;20040;-60
2022/09/12 04:40:14;;;;;;;4.07;1.70;;;;;;;14.59;79.19;96045.84;5096485;28;20129;-60
2022/09/12 04:42:42;;;;;;;3.60;1.60;;;;;;;15.10;77.44;96048.88;5096583;28;20083;-60
2022/09/12 04:45:11;;;;;;;4.10;1.40;;;;;;;15.43;73.44;96058.19;5096462;28;20062;-60
2022/09/12 04:47:38;;;;;;;5.25;1.48;;;;;;;16.03;72.39;96057.81;5096457;28;20044;-60
2022/09/12 04:50:06;;;;;;;1.95;1.38;;;;;;;16.80;71.05;96050.81;5096161;28;20143;-60
2022/09/12 04:52:34;;;;;;;3.17;1.00;;;;;;;17.79;67.75;96056.03;5096147;28;20139;-60
2022/09/12 04:55:01;;;;;;;1.10;1.00;;;;;;;18.78;64.43;96057.38;5096223;28;20055;-60
2022/09/12 04:57:28;;;;;;;3.03;1.23;;;;;;;19.71;62.17;96064.19;5096154;28;20072;-61
2022/09/12 04:59:55;;;;;;;3.33;0.90;;;;;;;20.63;58.40;96072.50;5096106;28;20119;-60
2022/09/12 05:02:24;;;;;;;3.70;0.88;;;;;;;21.42;56.81;96071.91;5096063;28;20044;-61
2022/09/12 05:04:51;;;;;;;1.90;1.08;;;;;;;21.91;52.75;96069.28;5096130;28;20083;-61
2022/09/12 05:07:18;;;;;;;1.27;0.90;;;;;;;22.33;49.57;96068.13;5096021;28;20106;-61
2022/09/12 05:09:45;;;;;;;0.65;0.65;;;;;;;23.07;51.04;96071.94;5096056;28;20041;-61
2022/09/12 05:12:13;;;;;;;1.25;0.70;;;;;;;23.69;47.52;96057.94;5095808;28;20083;-61
2022/09/12 05:14:40;;;;;;;3.75;0.88;;;;;;;24.11;46.20;96067.16;5095695;28;20048;-61
2022/09/12 05:17:07;;;;;;;6.60;1.20;;;;;;;24.73;46.95;96061.88;5095735;28;20052;-60
2022/09/12 05:19:38;;;;;;;1.55;0.63;;;;;;;25.45;45.63;96055.31;5095713;28;20070;-60
2022/09/12 05:22:05;;;;;;;;;;;;;;;26.11;43.74;96051.03;5096217;28;20083;-60
2022/09/12 05:24:34;;;;;;;2.05;0.70;;;;;;;26.63;42.47;96057.00;5095500;28;19926;-60
2022/09/12 05:27:03;;;;;;;0.80;0.80;;;;;;;26.91;39.58;96058.44;5095671;28;20079;-60
2022/09/12 05:29:30;;;;;;;2.60;0.93;;;;;;;27.45;39.13;96059.56;5095474;28;20048;-60
2022/09/12 05:31:57;;;;;;;1.98;0.70;;;;;;;27.84;40.26;96061.34;5095491;28;20056;-60
2022/09/12 05:34:26;;;;;;;2.67;0.70;;;;;;;28.12;38.94;96063.47;5095529;28;20409;-60
2022/09/12 05:36:55;;;;;;;0.90;0.57;;;;;;;28.57;35.90;96068.16;5094238;28;20413;-60
2022/09/12 05:39:22;;;;;;;1.70;0.60;;;;;;;29.07;36.50;96067.59;5095341;28;20094;-61
2022/09/12 05:41:49;;;;;;;3.08;0.68;;;;;;;29.60;35.75;96071.16;5095369;28;20481;-61
2022/09/12 05:44:16;;;;;;;5.32;0.77;;;;;;;29.87;34.57;96064.19;5095244;28;20040;-60
2022/09/12 05:46:47;;;;;;;1.00;0.68;;;;;;;30.02;34.15;96057.88;5095294;28;20048;-60
2022/09/12 05:49:14;;;;;;;2.03;0.80;;;;;;;30.13;34.40;96056.53;5095214;28;20088;-60
2022/09/12 05:51:43;;;;;;;0.70;0.52;;;;;;;30.45;36.34;96056.16;5095171;28;20048;-60
2022/09/12 05:54:19;;;;;;;1.05;0.60;;;;;;;30.39;33.54;96060.47;5094986;28;20071;-60
2022/09/12 05:56:47;;;;;;;2.13;0.50;;;;;;;30.32;33.30;96063.13;5094945;28;20101;-60
2022/09/12 05:59:15;;;;;;;3.53;0.80;;;;;;;30.34;32.32;96061.06;5095014;28;20106;-60
2022/09/12 06:01:43;;;;;;;1.17;0.88;;;;;;;30.38;32.06;96067.75;5094906;28;20055;-60
2022/09/12 06:04:10;;;;;;;1.85;0.60;;;;;;;30.30;34.62;96059.78;5094909;28;20048;-60
2022/09/12 06:06:43;;;;;;;0.80;0.60;;;;;;;30.24;32.64;96057.88;5094864;28;20482;-60
2022/09/12 06:09:13;;;;;;;3.08;0.70;;;;;;;30.39;31.98;96057.78;5094896;28;20044;-60
2022/09/12 06:11:41;;;;;;;3.50;0.90;;;;;;;30.34;33.21;96057.53;5094792;28;20048;-59
2022/09/12 06:14:09;;;;;;;1.17;0.50;;;;;;;30.14;33.44;96058.19;5094278;28;20048;-60
2022/09/12 06:16:37;;;;;;;2.28;1.20;;;;;;;30.13;34.68;96056.53;5094767;28;20044;-60
2022/09/12 06:19:06;;;;;;;2.50;0.80;;;;;;;29.73;34.56;96051.56;5094526;28;20059;-61
2022/09/12 06:21:34;;;;;;;1.95;1.23;;;;;;;29.51;34.58;96052.38;5094550;28;20047;-60
2022/09/12 06:24:02;;;;;;;4.45;0.80;;;;;;;29.58;36.19;96059.72;5094647;28;20050;-61
2022/09/12 06:26:32;;;;;;;3.50;0.70;;;;;;;29.47;34.14;96058.34;5094422;28;20455;-60
2022/09/12 06:29:01;;;;;;;1.05;0.68;;;;;;;29.41;34.14;96061.78;5094464;28;20073;-60
2022/09/12 06:31:29;;;;;;;2.25;0.60;;;;;;;29.49;35.96;96054.44;5094225;28;20048;-60
2022/09/12 06:33:59;;;;;;;1.27;0.60;;;;;;;28.72;35.07;96057.38;5094388;28;20048;-60
2022/09/12 06:36:28;;;;;;;0.80;0.50;;;;;;;28.70;35.42;96063.97;5094487;28;20513;-60
2022/09/12 06:38:57;;;;;;;3.15;0.57;;;;;;;28.40;34.86;96053.16;5094325;28;20048;-60
2022/09/12 06:41:25;;;;;;;1.98;0.40;;;;;;;27.50;34.76;96049.97;5094250;28;20048;-60
2022/09/12 06:43:54;;;;;;;0.60;0.40;;;;;;;27.43;37.07;96056.22;5094141;28;20149;-60
2022/09/12 06:46:24;;;;;;;3.25;0.60;;;;;;;27.32;37.02;96057.44;5094043;28;20047;-60
2022/09/12 06:48:52;;;;;;;0.90;0.40;;;;;;;26.87;38.20;96068.69;5093844;28;20094;-60
2022/09/12 06:51:20;;;;;;;1.05;0.40;;;;;;;26.58;37.16;96070.13;5094007;28;20052;-60
2022/09/12 06:53:48;;;;;;;1.92;0.65;;;;;;;26.15;37.92;96079.16;5093780;28;20083;-59
2022/09/12 06:56:18;;;;;;;1.88;0.60;;;;;;;26.11;38.69;96067.13;5093967;28;20525;-60
2022/09/12 06:58:46;;;;;;;1.40;0.75;;;;;;;26.02;38.66;96065.44;5093849;28;20044;-60
2022/09/12 07:01:17;;;;;;;0.38;0.30;;;;;;;26.11;38.30;96072.47;5093845;28;20063;-60
2022/09/12 07:03:48;;;;;;;1.13;0.50;;;;;;;26.05;40.08;96065.09;5093784;28;20054;-60
2022/09/12 07:06:18;;;;;;;2.58;0.30;;;;;;;26.06;38.13;96064.94;5093692;28;20055;-60
2022/09/12 07:08:46;;;;;;;1.27;0.40;;;;;;;25.98;38.92;96071.13;5093650;28;20048;-59
2022/09/12 07:11:17;;;;;;;0.63;0.43;;;;;;;26.13;40.75;96062.44;5093608;28;20079;-60
2022/09/12 07:13:48;;;;;;;0.47;0.40;;;;;;;25.66;38.41;96067.44;5093311;28;20062;-60
2022/09/12 07:16:18;;;;;;;0.93;0.40;;;;;;;25.47;40.00;96066.69;5093594;28;20048;-60
2022/09/12 07:18:45;;;;;;;2.90;0.43;;;;;;;25.89;38.86;96065.94;5093568;28;20060;-60
2022/09/12 07:21:15;;;;;;;0.90;0.30;;;;;;;26.16;38.35;96070.16;5093576;28;20044;-60
2022/09/12 07:23:43;;;;;;;0.35;0.35;;;;;;;26.35;37.79;96062.78;5093546;28;20052;-59
2022/09/12 07:26:12;;;;;;;1.75;0.40;;;;;;;26.44;39.35;96067.13;5093636;28;20051;-59
2022/09/12 07:28:40;;;;;;;3.00;0.60;;;;;;;26.54;37.35;96069.59;5093436;28;20535;-60
2022/09/12 07:31:09;;;;;;;1.02;0.40;;;;;;;26.54;38.79;96074.13;5093467;28;20048;-60
2022/09/12 07:33:38;;;;;;;5.03;0.38;;;;;;;26.28;39.13;96076.00;5093148;28;20055;-59
2022/09/12 07:36:10;;;;;;;1.75;0.40;;;;;;;26.56;37.84;96077.47;5093240;28;20048;-60
2022/09/12 07:38:40;;;;;;;0.57;0.40;;;;;;;26.69;35.48;96071.56;5093351;28;20113;-60
2022/09/12 07:41:15;;;;;;;1.15;0.35;;;;;;;26.57;37.29;96063.06;5093249;28;20055;-60
2022/09/12 07:43:42;;;;;;;0.82;0.40;;;;;;;26.27;36.44;96070.81;5093221;28;20052;-59
2022/09/12 07:46:10;;;;;;;0.30;0.30;;;;;;;26.22;37.04;96071.31;5093189;28;20051;-60
2022/09/12 07:48:39;;;;;;;0.82;0.22;;;;;;;26.13;36.76;96067.81;5093118;28;20051;-59
2022/09/12 07:51:08;;;;;;;0.63;0.30;;;;;;;26.35;37.77;96065.44;5093221;28;20040;-59
2022/09/12 07:53:38;;;;;;;1.77;0.52;;;;;;;26.49;36.27;96066.63;5093060;28;20109;-60
2022/09/12 07:56:06;;;;;;;3.50;0.50;;;;;;;26.51;37.91;96063.78;5093216;28;20048;-60
2022/09/12 07:58:36;;;;;;;1.95;0.50;;;;;;;26.18;35.71;96073.47;5093246;28;20093;-59
2022/09/12 08:01:04;;;;;;;1.35;0.40;;;;;;;25.92;37.24;96068.28;5096673;28;20090;-59
2022/09/12 08:03:32;;;;;;;0.60;0.40;;;;;;;25.76;36.31;96075.31;5097285;28;20047;-59
2022/09/12 08:06:05;;;;;;;5.47;0.65;;;;;;;25.83;37.21;96075.50;5097223;28;20041;-60
2022/09/12 08:08:33;;;;;;;0.93;0.50;;;;;;;25.84;35.76;96069.13;5097447;28;20047;-60
2022/09/12 08:11:01;;;;;;;1.00;0.60;;;;;;;25.80;37.80;96081.19;5097155;28;20048;-59
2022/09/12 08:13:29;;;;;;;1.30;0.30;;;;;;;25.51;35.35;96071.72;5096765;28;20135;-59
2022/09/12 08:15:58;;;;;;;1.80;0.40;;;;;;;25.48;39.31;96070.22;5097044;28;20040;-59
2022/09/12 08:18:27;;;;;;;0.25;0.25;;;;;;;25.85;36.34;96071.63;5096956;28;20048;-59
2022/09/12 08:20:58;;;;;;;1.80;0.35;;;;;;;25.86;37.01;96065.25;5096933;28;20050;-59
2022/09/12 08:23:28;;;;;;;1.10;0.30;;;;;;;25.86;36.36;96072.47;5096851;28;20070;-59
2022/09/12 08:25:57;;;;;;;1.08;0.40;;;;;;;25.90;38.53;96070.28;5096985;28;20449;-59
2022/09/12 08:28:24;;;;;;;6.53;0.80;;;;;;;26.14;37.64;96057.91;5096732;28;20512;-59
2022/09/12 08:30:52;;;;;;;1.75;0.35;;;;;;;26.28;36.40;96054.56;5096721;28;20044;-59
2022/09/12 08:33:20;;;;;;;0.30;0.30;;;;;;;26.40;38.70;96060.44;5096544;28;20052;-59
2022/09/12 08:35:47;;;;;;;2.40;0.32;;;;;;;26.18;36.81;96064.59;5096667;28;20143;-59
2022/09/12 08:38:14;;;;;;;0.40;0.30;;;;;;;26.28;35.56;96067.13;5096575;28;20040;-59
2022/09/12 08:40:50;;;;;;;0.50;0.43;;;;;;;26.34;35.50;96056.56;5096415;28;20040;-59
2022/09/12 08:43:30;;;;;;;0.38;0.30;;;;;;;26.37;34.97;96042.81;5096343;28;20046;-59
2022/09/12 08:46:06;;;;;;;2.25;0.32;;;;;;;26.46;34.49;96051.69;5096351;28;20051;-59
2022/09/12 08:48:37;;;;;;;1.35;0.32;;;;;;;26.46;36.25;96051.69;5096502;28;20052;-59
2022/09/12 08:51:05;;;;;;;1.27;0.40;;;;;;;26.49;35.27;96051.34;5096340;28;20044;-59
2022/09/12 08:53:36;;;;;;;1.75;0.47;;;;;;;26.65;36.45;96054.16;5096189;28;20052;-59
2022/09/12 08:56:07;;;;;;;0.30;0.30;;;;;;;26.89;34.63;96037.16;5096230;28;20474;-59
2022/09/12 08:58:39;;;;;;;1.30;0.40;;;;;;;26.85;33.74;96042.03;5096230;28;20048;-59
2022/09/12 09:01:12;;;;;;;0.57;0.45;;;;;;;26.47;33.83;96048.03;5096224;28;20465;-59
2022/09/12 09:04:26;;;;;;;1.35;0.60;;;;;;;26.04;35.99;96061.63;5096133;28;20048;-59
2022/09/12 09:07:06;;;;;;;3.58;0.35;;;;;;;26.01;36.24;96045.03;5096026;28;20109;-59
2022/09/12 09:09:49;;;;;;;0.63;0.40;;;;;;;25.44;36.69;96055.50;5095967;28;20436;-59
2022/09/12 09:12:26;;;;;;;0.40;0.30;;;;;;;25.26;37.82;96053.78;5095513;28;20493;-59
2022/09/12 09:15:13;;;;;;;0.45;0.40;;;;;;;25.52;37.91;96041.28;5095946;28;20048;-59
2022/09/12 09:17:45;;;;;;;0.43;0.43;;;;;;;25.70;35.15;96050.03;5095861;28;20044;-59
2022/09/12 09:20:22;;;;;;;0.68;0.35;;;;;;;25.19;37.23;96063.47;5095951;28;20048;-59
2022/09/12 09:22:53;;;;;;;0.90;0.40;;;;;;;24.64;35.43;96050.31;5096083;28;20055;-59
2022/09/12 09:25:24;;;;;;;0.40;0.40;;;;;;;24.32;36.88;96049.94;5095650;28;20052;-59
2022/09/12 09:27:58;;;;;;;0.40;0.40;;;;;;;23.94;39.10;96046.66;5095667;28;20093;-59
2022/09/12 09:30:27;;;;;;;0.90;0.38;;;;;;;23.75;39.23;96040.47;5095732;28;20135;-59
2022/09/12 09:32:58;;;;;;;0.73;0.45;;;;;;;23.76;38.28;96038.66;5095534;28;20048;-59
2022/09/12 09:35:39;;;;;;;0.88;0.52;;;;;;;23.98;39.37;96040.84;5095568;28;20574;-59
2022/09/12 09:38:18;;;;;;;1.35;0.65;;;;;;;24.50;42.95;96038.38;5095433;28;20131;-59
2022/09/12 09:40:53;;;;;;;2.15;0.88;;;;;;;24.91;44.30;96039.59;5095488;28;20510;-59
2022/09/12 09:43:26;;;;;;;1.65;0.90;;;;;;;24.58;45.65;96038.41;5095620;28;20106;-59
2022/09/12 09:45:53;;;;;;;2.83;0.55;;;;;;;24.53;40.50;96043.41;5095409;28;20097;-59
2022/09/12 09:48:26;;;;;;;0.30;0.30;;;;;;;24.59;38.75;96039.28;5095332;28;20080;-59
2022/09/12 09:50:53;;;;;;;0.43;0.30;;;;;;;24.62;38.32;96044.28;5095184;28;20059;-59
2022/09/12 09:53:33;;;;;;;1.48;0.60;;;;;;;24.47;39.10;96046.72;5094970;28;20056;-59
2022/09/12 09:56:03;;;;;;;0.68;0.50;;;;;;;24.46;41.23;96042.34;5095032;28;20044;-59
2022/09/12 09:58:33;;;;;;;;;;;;;;;24.28;38.00;96040.56;5095459;28;20391;-59
2022/09/12 10:01:01;;;;;;;1.05;0.40;;;;;;;24.32;40.64;96031.25;5095109;28;19966;-59
2022/09/12 10:03:33;;;;;;;1.05;0.60;;;;;;;24.60;40.04;96036.41;5094978;28;20131;-59
2022/09/12 10:06:02;;;;;;;2.15;0.43;;;;;;;24.78;40.89;96034.66;5094992;28;20129;-60
2022/09/12 10:08:31;;;;;;;0.75;0.70;;;;;;;24.74;39.89;96036.81;5094982;28;20040;-59
2022/09/12 10:11:04;;;;;;;1.05;0.63;;;;;;;24.73;40.99;96041.34;5094868;28;20048;-59
2022/09/12 10:13:39;;;;;;;1.95;0.60;;;;;;;24.67;41.76;96043.81;5094475;28;20070;-59
2022/09/12 10:16:18;;;;;;;2.45;0.50;;;;;;;24.55;41.03;96041.41;5094830;28;20462;-60
2022/09/12 10:18:45;;;;;;;2.35;0.60;;;;;;;24.41;41.82;96042.00;5094638;28;20127;-60
2022/09/12 10:21:26;;;;;;;2.13;0.50;;;;;;;24.33;41.28;96035.63;5094736;28;20041;-59
2022/09/12 10:24:03;;;;;;;2.35;0.80;;;;;;;24.27;41.68;96036.25;5093909;28;20126;-60
2022/09/12 10:26:37;;;;;;;1.35;0.60;;;;;;;24.27;39.80;96036.25;5094470;28;20048;-60
2022/09/12 10:29:14;;;;;;;1.05;0.70;;;;;;;24.42;40.06;96038.31;5094361;28;20044;-60
2022/09/12 10:31:50;;;;;;;0.60;0.60;;;;;;;24.50;41.92;96029.53;5094463;28;20044;-60
2022/09/12 10:34:37;;;;;;;0.40;0.40;;;;;;;24.42;38.25;96033.84;5094370;28;20055;-59
2022/09/12 10:37:07;;;;;;;0.70;0.50;;;;;;;24.35;39.79;96028.25;5094318;28;20111;-60
2022/09/12 10:39:38;;;;;;;0.50;0.50;;;;;;;24.31;39.27;96026.06;5094217;28;20047;-59
2022/09/12 10:42:05;;;;;;;;;;;;;;;24.24;38.05;96031.22;5094551;28;20490;-60
2022/09/12 10:44:35;;;;;;;0.93;0.70;;;;;;;24.29;39.70;96026.22;5094257;28;19927;-60
2022/09/12 10:47:20;;;;;;;1.23;0.80;;;;;;;24.30;44.10;96027.06;5094166;28;20109;-59
2022/09/12 10:49:49;;;;;;;0.73;0.73;;;;;;;24.45;44.62;96017.47;5094095;28;20485;-59
2022/09/12 10:52:20;;;;;;;1.10;0.80;;;;;;;24.73;43.64;96024.44;5094099;28;20051;-60
2022/09/12 10:54:48;;;;;;;1.23;0.93;;;;;;;25.14;44.41;96031.00;5093878;28;20169;-59
2022/09/12 10:57:43;;;;;;;0.80;0.80;;;;;;;25.22;41.93;96029.16;5093853;28;20131;-60
2022/09/12 11:00:16;;;;;;;2.47;0.40;;;;;;;25.36;39.54;96019.69;5093954;28;20048;-59
2022/09/12 11:03:04;;;;;;;1.13;0.40;;;;;;;25.17;35.50;96018.13;5093937;28;20048;-59
2022/09/12 11:05:44;;;;;;;0.82;0.50;;;;;;;24.93;41.16;96018.88;5093726;28;20130;-59
2022/09/12 11:08:37;;;;;;;1.05;0.93;;;;;;;25.06;43.65;96035.31;5093730;28;20077;-60
2022/09/12 11:11:14;;;;;;;0.90;0.50;;;;;;;25.11;37.38;96024.13;5093667;28;20044;-59
2022/09/12 11:13:55;;;;;;;1.63;0.30;;;;;;;24.95;33.61;96022.25;5093385;28;20087;-60
2022/09/12 11:16:33;;;;;;;0.80;0.40;;;;;;;24.89;34.90;96021.03;5093824;28;20040;-59
2022/09/12 11:19:21;;;;;;;1.35;0.57;;;;;;;24.73;36.24;96024.44;5093638;28;20501;-60
2022/09/12 11:22:03;;;;;;;0.95;0.50;;;;;;;24.49;35.26;96023.34;5093577;28;20054;-59
2022/09/12 11:24:57;;;;;;;1.70;0.50;;;;;;;24.33;36.97;96019.59;5093570;28;20044;-60
2022/09/12 11:27:36;;;;;;;0.70;0.70;;;;;;;24.08;37.24;96016.69;5093574;28;20047;-59
2022/09/12 11:30:09;;;;;;;2.92;0.50;;;;;;;24.03;37.12;96010.16;5093470;28;20051;-59
2022/09/12 11:33:13;;;;;;;2.65;0.52;;;;;;;24.16;39.29;96009.75;5093385;28;20051;-59
2022/09/12 11:35:47;;;;;;;0.47;0.47;;;;;;;24.26;35.89;96001.66;5092594;28;20405;-59
2022/09/12 11:38:47;;;;;;;0.93;0.88;;;;;;;24.63;35.97;95992.50;5093395;28;20051;-59
2022/09/12 11:41:20;;;;;;;0.98;0.70;;;;;;;24.78;37.07;95992.75;5076039;28;20036;-60
2022/09/12 11:43:53;;;;;;;0.40;0.40;;;;;;;24.53;34.59;96010.50;5093271;28;20052;-59
2022/09/12 11:46:23;;;;;;;0.75;0.50;;;;;;;24.31;34.91;96002.00;5093187;28;20206;-59
2022/09/12 11:48:58;;;;;;;1.25;0.40;;;;;;;24.30;33.71;95997.69;5093301;28;20048;-59
2022/09/12 11:51:29;;;;;;;0.52;0.52;;;;;;;24.14;36.31;95988.56;5093280;28;20397;-59
2022/09/12 11:54:06;;;;;;;0.55;0.55;;;;;;;24.36;34.96;95997.88;5093089;28;20091;-59
2022/09/12 11:56:38;;;;;;;2.28;0.50;;;;;;;24.52;35.67;95990.94;5093015;28;20132;-59
2022/09/12 11:59:15;;;;;;;1.67;0.70;;;;;;;24.69;34.20;95989.19;5093175;28;20108;-59
2022/09/12 12:01:45;;;;;;;1.80;0.60;;;;;;;24.71;34.79;95989.03;5093115;28;20044;-59
2022/09/12 12:04:18;;;;;;;0.60;0.50;;;;;;;24.69;35.84;95989.19;5093101;28;20051;-59